Flugplatz Nuremberg

Bericht für EDDN

vom 28.01. um 16:20 UTC

Wind 16 kt aus 250°

Sichtweite 10 km oder mehr

gering bewölkt in 2000 ft

Temperatur 3.0°C

Taupunkt -1.0°C

Luftfeuchtigkeit 75%

Luftdruck 1001 hPa

keine wesentliche Wetteränderung innerhalb den nächsten 2 Stunden zu erwarten

EDDN 281620Z 25016KT 220V280 9999 FEW020 03/M01 Q1001 NOSIG

Prognose für EDDN

vom 28.01. um 00:00 UTC

Zwischen 00:00 UTC und 00:00 UTC

Wind 15 kt aus 250° in Böen 30 kt

Sichtweite 10 km oder mehr

aufgelockert bewölkt in 3000 ft


Zwischen 00:00 UTC und 00:00 UTC zeitweise

Wind 25 kt aus 250° in Böen 35 kt

Sichtweite 4000 m

Regenschauer

Code: SHGS

aufgebrochene Bewölkung in 2000 ft


Zwischen 00:00 UTC und 00:00 UTC zeitweise mit einer Wahrscheinlichkeit von 30%

Wind 30 kt aus 250° in Böen 45 kt

Sichtweite 2000 m

Code: TSGS


Zwischen 00:00 und 00:00 UTC übergehend zu

Wind 10 kt aus 250°

Sichtweite 10 km oder mehr

aufgelockert bewölkt in 3000 ft


Am 29.01. zwischen 00:00 UTC und 00:00 UTC zeitweise mit einer Wahrscheinlichkeit von 40%

Sichtweite 3000 m

schwacher Schneeschauer

aufgebrochene Bewölkung in 2000 ft


Am 29.01. zwischen 00:00 UTC und 00:00 UTC zeitweise

Wind 15 kt aus 250° in Böen 25 kt

TAF EDDN 281100Z 2812/2912 25015G30KT 9999 SCT030 TEMPO 2812/2818 25025G35KT 4000 SHRAGS BKN020CB PROB30 TEMPO 2813/2817 25030G45KT 2000 TSGS BECMG 2820/2822 25010KT PROB40 TEMPO 2900/2906 3000 -SHSN BKN020TCU TEMPO 2910/2912 25015G25KT
Impressum